La rose des vents
Donnes mto: Semaine 07/04/08 - 13/04/08 (S 15)
Date Horaire Temp. E. Hum. E. P.atmo. Pluie Vent 1mn Direction Ensoleilleme Ev.Tr. Solaire P. de rose Temp au vent Rafales
07/04/2008 00:00 11,8 C 42 % 997,1 hPa 0,0 l/m 22,6 km/h (4 Bft) SO 0,00 h 0,127 mm 0 W/m -0,6 C 11,8 C 28,7 km/h (4 Bft)
07/04/2008 01:00 11,7 C 43 % 997,2 hPa 0,0 l/m 23,7 km/h (4 Bft) SO 0,00 h 0,152 mm 0 W/m -0,5 C 11,7 C 30,8 km/h (5 Bft)
07/04/2008 02:00 10,7 C 48 % 997,2 hPa 0,0 l/m 25,3 km/h (4 Bft) SO 0,00 h 0,152 mm 0 W/m 0,0 C 10,7 C 32,7 km/h (5 Bft)
07/04/2008 03:00 9,9 C 51 % 997,1 hPa 0,0 l/m 22,0 km/h (4 Bft) SO 0,00 h 0,152 mm 0 W/m 0,2 C 8,0 C 27,3 km/h (4 Bft)
07/04/2008 04:00 9,1 C 50 % 997,1 hPa 0,0 l/m 14,8 km/h (3 Bft) SO 0,00 h 0,127 mm 0 W/m -0,9 C 6,9 C 19,4 km/h (3 Bft)
07/04/2008 05:00 8,4 C 45 % 996,9 hPa 0,0 l/m 11,0 km/h (2 Bft) S-SO 0,00 h 0,102 mm 0 W/m -3,0 C 6,7 C 15,5 km/h (3 Bft)
07/04/2008 06:00 6,8 C 48 % 997,3 hPa 0,0 l/m 10,5 km/h (2 Bft) SO 0,00 h 0,076 mm 0 W/m -3,4 C 4,8 C 14,2 km/h (3 Bft)
07/04/2008 07:00 8,1 C 36 % 996,9 hPa 0,0 l/m 12,4 km/h (3 Bft) O-SO 0,05 h 0,051 mm 21 W/m -6,3 C 6,1 C 16,9 km/h (3 Bft)
07/04/2008 08:00 10,1 C 29 % 997,1 hPa 0,0 l/m 15,0 km/h (3 Bft) SO 0,32 h 0,102 mm 122 W/m -7,7 C 9,0 C 21,9 km/h (4 Bft)
07/04/2008 09:00 11,6 C 29 % 997,4 hPa 0,0 l/m 19,2 km/h (3 Bft) S-SO 1,00 h 0,178 mm 401 W/m -5,9 C 11,6 C 24,3 km/h (4 Bft)
07/04/2008 10:00 13,3 C 26 % 997,7 hPa 0,0 l/m 23,0 km/h (4 Bft) S-SO 1,00 h 0,356 mm 573 W/m -6,0 C 13,3 C 29,6 km/h (5 Bft)
07/04/2008 11:00 15,5 C 21 % 997,7 hPa 0,0 l/m 24,5 km/h (4 Bft) S-SO 1,00 h 0,483 mm 713 W/m -7,0 C 15,5 C 32,0 km/h (5 Bft)
07/04/2008 12:00 18,0 C 19 % 997,4 hPa 0,0 l/m 18,2 km/h (3 Bft) S-SO 1,00 h 0,610 mm 801 W/m -5,9 C 18,0 C 24,9 km/h (4 Bft)
07/04/2008 13:00 19,6 C 15 % 996,9 hPa 0,0 l/m 24,3 km/h (4 Bft) S-SO 1,00 h 0,635 mm 838 W/m -8,1 C 19,6 C 33,1 km/h (5 Bft)
07/04/2008 14:00 20,3 C 13 % 996,7 hPa 0,0 l/m 29,7 km/h (5 Bft) S-SO 1,00 h 0,762 mm 808 W/m -9,1 C 20,3 C 39,6 km/h (6 Bft)
07/04/2008 15:00 20,1 C 12 % 997,1 hPa 0,0 l/m 30,4 km/h (5 Bft) SO 1,00 h 0,838 mm 703 W/m -10,2 C 20,1 C 39,5 km/h (6 Bft)
07/04/2008 16:00 20,8 C 11 % 996,9 hPa 0,0 l/m 28,5 km/h (4 Bft) SO 1,00 h 0,762 mm 570 W/m -10,2 C 20,8 C 37,0 km/h (5 Bft)
07/04/2008 17:00 18,8 C 12 % 997,5 hPa 0,0 l/m 30,0 km/h (5 Bft) SO 0,15 h 0,686 mm 231 W/m -10,9 C 18,8 C 38,2 km/h (5 Bft)
07/04/2008 18:00 17,6 C 15 % 998,0 hPa 0,0 l/m 26,0 km/h (4 Bft) SO 0,50 h 0,483 mm 162 W/m -9,1 C 17,6 C 32,9 km/h (5 Bft)
07/04/2008 19:00 15,8 C 19 % 998,3 hPa 0,0 l/m 32,7 km/h (5 Bft) SO 0,57 h 0,381 mm 56 W/m -7,7 C 15,8 C 41,0 km/h (6 Bft)
07/04/2008 20:00 13,9 C 23 % 998,7 hPa 0,0 l/m 15,1 km/h (3 Bft) SO 0,00 h 0,356 mm 8 W/m -7,0 C 13,9 C 20,9 km/h (4 Bft)
07/04/2008 21:00 12,9 C 25 % 1000,0 hPa 0,0 l/m 8,5 km/h (2 Bft) O-SO 0,00 h 0,152 mm 0 W/m -6,5 C 12,9 C 12,7 km/h (3 Bft)
07/04/2008 22:00 12,4 C 27 % 1000,5 hPa 0,0 l/m 8,4 km/h (2 Bft) O-SO 0,00 h 0,102 mm 0 W/m -6,2 C 12,4 C 12,4 km/h (3 Bft)
07/04/2008 23:00 11,6 C 30 % 1000,8 hPa 0,0 l/m 2,5 km/h (1 Bft) E-NE 0,00 h 0,102 mm 0 W/m -5,4 C 11,6 C 4,3 km/h (1 Bft)
08/04/2008 00:00 11,5 C 47 % 1001,4 hPa 0,0 l/m 6,3 km/h (2 Bft) NE 0,00 h 0,076 mm 0 W/m 0,3 C 11,5 C 8,4 km/h (2 Bft)
08/04/2008 01:00 11,3 C 66 % 1001,8 hPa 0,0 l/m 3,6 km/h (1 Bft) N-NE 0,00 h 0,076 mm 0 W/m 5,2 C 11,3 C 5,7 km/h (1 Bft)
08/04/2008 02:00 11,2 C 69 % 1001,4 hPa 0,0 l/m 4,1 km/h (1 Bft) E 0,00 h 0,025 mm 0 W/m 5,7 C 11,2 C 6,2 km/h (2 Bft)
08/04/2008 03:00 11,1 C 72 % 1001,6 hPa 0,0 l/m 5,0 km/h (1 Bft) E-NE 0,00 h 0,025 mm 0 W/m 6,2 C 11,1 C 7,9 km/h (2 Bft)
08/04/2008 04:00 10,6 C 71 % 1001,4 hPa 0,0 l/m 1,6 km/h (1 Bft) N-NE 0,00 h 0,025 mm 0 W/m 5,6 C 10,6 C 3,4 km/h (1 Bft)
08/04/2008 05:00 10,7 C 71 % 1001,2 hPa 0,0 l/m 7,6 km/h (2 Bft) NE 0,00 h 0,025 mm 0 W/m 5,7 C 10,7 C 11,2 km/h (2 Bft)
08/04/2008 06:00 10,6 C 68 % 1000,9 hPa 0,0 l/m 6,2 km/h (2 Bft) NE 0,00 h 0,051 mm 0 W/m 4,9 C 10,6 C 9,4 km/h (2 Bft)
08/04/2008 07:00 10,5 C 64 % 1000,5 hPa 0,0 l/m 5,8 km/h (2 Bft) NE 0,03 h 0,025 mm 22 W/m 3,9 C 10,5 C 8,1 km/h (2 Bft)
08/04/2008 08:00 10,8 C 61 % 1001,0 hPa 0,0 l/m 1,5 km/h (1 Bft) NE 0,00 h 0,051 mm 49 W/m 3,7 C 10,8 C 2,7 km/h (1 Bft)
08/04/2008 09:00 11,3 C 64 % 1001,8 hPa 0,0 l/m 2,8 km/h (1 Bft) E-NE 0,00 h 0,025 mm 45 W/m 4,7 C 11,3 C 4,6 km/h (1 Bft)
08/04/2008 10:00 11,3 C 78 % 1002,2 hPa 0,0 l/m 10,7 km/h (2 Bft) E-NE 0,00 h 0,051 mm 58 W/m 7,5 C 11,3 C 15,0 km/h (3 Bft)
08/04/2008 11:00 11,2 C 79 % 1002,4 hPa 0,0 l/m 12,3 km/h (3 Bft) E-NE 0,00 h 0,051 mm 80 W/m 7,7 C 11,2 C 17,5 km/h (3 Bft)
08/04/2008 12:00 11,3 C 71 % 1003,0 hPa 0,0 l/m 7,4 km/h (2 Bft) NE 0,00 h 0,076 mm 90 W/m 6,2 C 11,3 C 11,3 km/h (2 Bft)
08/04/2008 13:00 11,4 C 73 % 1003,2 hPa 0,0 l/m 1,0 km/h (0 Bft) E 0,00 h 0,076 mm 126 W/m 6,8 C 11,4 C 2,2 km/h (1 Bft)
08/04/2008 14:00 12,2 C 69 % 1003,1 hPa 0,0 l/m 1,4 km/h (1 Bft) E 0,00 h 0,076 mm 253 W/m 6,6 C 12,2 C 3,3 km/h (1 Bft)
08/04/2008 15:00 12,2 C 68 % 1002,8 hPa 0,0 l/m 1,5 km/h (1 Bft) O-NO 0,00 h 0,127 mm 91 W/m 6,5 C 12,2 C 3,0 km/h (1 Bft)
08/04/2008 16:00 11,8 C 77 % 1002,8 hPa 0,0 l/m 0,6 km/h (0 Bft) S-SE 0,00 h 0,051 mm 86 W/m 7,9 C 11,8 C 1,4 km/h (1 Bft)
08/04/2008 17:00 11,7 C 79 % 1002,9 hPa 0,0 l/m 2,0 km/h (1 Bft) E 0,00 h 0,051 mm 65 W/m 8,1 C 11,7 C 3,5 km/h (1 Bft)
08/04/2008 18:00 11,3 C 79 % 1003,2 hPa 0,0 l/m 0,7 km/h (0 Bft) E 0,00 h 0,051 mm 19 W/m 7,9 C 11,3 C 1,5 km/h (1 Bft)
08/04/2008 19:00 10,9 C 82 % 1004,1 hPa 0,4 l/m 3,6 km/h (1 Bft) S-SE 0,00 h 0,025 mm 9 W/m 7,9 C 10,9 C 5,4 km/h (1 Bft)
08/04/2008 20:00 10,0 C 88 % 1003,9 hPa 0,0 l/m 3,8 km/h (1 Bft) O-NO 0,00 h 0,025 mm 0 W/m 8,2 C 9,9 C 5,6 km/h (1 Bft)
08/04/2008 21:00 9,8 C 90 % 1004,0 hPa 0,0 l/m 0,4 km/h (0 Bft) O-NO 0,00 h 0,000 mm 0 W/m 8,3 C 9,8 C 1,0 km/h (0 Bft)
08/04/2008 22:00 9,7 C 91 % 1004,7 hPa 0,0 l/m 4,2 km/h (1 Bft) O-NO 0,00 h 0,000 mm 0 W/m 8,3 C 9,4 C 5,8 km/h (2 Bft)
08/04/2008 23:00 9,4 C 91 % 1004,9 hPa 0,0 l/m 6,7 km/h (2 Bft) NO 0,00 h 0,025 mm 0 W/m 8,1 C 8,6 C 9,0 km/h (2 Bft)
09/04/2008 00:00 9,5 C 90 % 1004,7 hPa 0,0 l/m 5,4 km/h (1 Bft) O-NO 0,00 h 0,025 mm 0 W/m 8,0 C 8,9 C 7,4 km/h (2 Bft)
09/04/2008 01:00 9,4 C 88 % 1004,4 hPa 0,0 l/m 1,0 km/h (0 Bft) N-NE 0,00 h 0,025 mm 0 W/m 7,5 C 9,4 C 2,6 km/h (1 Bft)
09/04/2008 02:00 9,1 C 87 % 1004,3 hPa 0,0 l/m 1,8 km/h (1 Bft) N-NO 0,00 h 0,025 mm 0 W/m 7,0 C 9,1 C 3,6 km/h (1 Bft)
09/04/2008 03:00 8,6 C 86 % 1003,5 hPa 0,0 l/m 4,7 km/h (1 Bft) O-NO 0,00 h 0,025 mm 0 W/m 6,4 C 8,1 C 7,0 km/h (2 Bft)
09/04/2008 04:00 7,8 C 87 % 1003,0 hPa 0,0 l/m 1,5 km/h (1 Bft) N-NO 0,00 h 0,025 mm 0 W/m 5,7 C 7,7 C 2,6 km/h (1 Bft)
09/04/2008 05:00 7,6 C 87 % 1003,0 hPa 0,0 l/m 1,9 km/h (1 Bft) NO 0,00 h 0,025 mm 0 W/m 5,6 C 7,5 C 3,1 km/h (1 Bft)
09/04/2008 06:00 7,6 C 89 % 1003,0 hPa 0,0 l/m 4,2 km/h (1 Bft) NE 0,00 h 0,025 mm 8 W/m 5,8 C 7,1 C 6,4 km/h (2 Bft)
09/04/2008 07:00 8,1 C 89 % 1003,0 hPa 0,0 l/m 4,7 km/h (1 Bft) N 0,00 h 0,000 mm 18 W/m 6,4 C 7,6 C 7,6 km/h (2 Bft)
09/04/2008 08:00 8,8 C 89 % 1003,0 hPa 0,0 l/m 4,5 km/h (1 Bft) N 0,00 h 0,025 mm 45 W/m 7,1 C 8,5 C 7,4 km/h (2 Bft)
09/04/2008 09:00 9,8 C 87 % 1002,9 hPa 0,4 l/m 3,0 km/h (1 Bft) N-NE 0,00 h 0,025 mm 54 W/m 7,8 C 9,8 C 5,0 km/h (1 Bft)
09/04/2008 10:00 9,7 C 88 % 1002,7 hPa 0,0 l/m 4,3 km/h (1 Bft) E-NE 0,00 h 0,025 mm 43 W/m 7,8 C 9,3 C 6,8 km/h (2 Bft)
09/04/2008 11:00 9,9 C 90 % 1002,6 hPa 0,2 l/m 4,1 km/h (1 Bft) N 0,00 h 0,025 mm 66 W/m 8,4 C 9,8 C 7,0 km/h (2 Bft)
09/04/2008 12:00 10,5 C 93 % 1001,9 hPa 0,0 l/m 0,9 km/h (0 Bft) N-NO 0,00 h 0,051 mm 50 W/m 9,4 C 10,5 C 1,8 km/h (1 Bft)
09/04/2008 13:00 11,0 C 93 % 1001,6 hPa 0,0 l/m 0,2 km/h (0 Bft) N-NO 0,00 h 0,025 mm 72 W/m 9,9 C 11,0 C 0,7 km/h (0 Bft)
09/04/2008 14:00 11,5 C 94 % 1000,6 hPa 0,6 l/m 1,3 km/h (1 Bft) N 0,00 h 0,025 mm 78 W/m 10,6 C 11,5 C 2,9 km/h (1 Bft)
09/04/2008 15:00 11,7 C 95 % 1000,0 hPa 1,8 l/m 1,8 km/h (1 Bft) NE 0,00 h 0,051 mm 46 W/m 10,8 C 11,7 C 3,3 km/h (1 Bft)
09/04/2008 16:00 11,6 C 95 % 999,5 hPa 3,2 l/m 1,4 km/h (1 Bft) NE 0,00 h 0,025 mm 31 W/m 10,8 C 11,6 C 2,3 km/h (1 Bft)
09/04/2008 17:00 11,7 C 95 % 999,1 hPa 0,6 l/m 1,5 km/h (1 Bft) N 0,00 h 0,025 mm 32 W/m 10,9 C 11,7 C 2,7 km/h (1 Bft)
09/04/2008 18:00 11,6 C 96 % 998,7 hPa 0,2 l/m 2,4 km/h (1 Bft) N-NE 0,00 h 0,025 mm 23 W/m 10,9 C 11,6 C 4,3 km/h (1 Bft)
09/04/2008 19:00 11,6 C 96 % 998,7 hPa 0,4 l/m 3,0 km/h (1 Bft) NE 0,00 h 0,025 mm 11 W/m 11,0 C 11,6 C 4,6 km/h (1 Bft)
09/04/2008 20:00 11,4 C 96 % 998,8 hPa 0,0 l/m 0,8 km/h (0 Bft) NE 0,00 h 0,000 mm 5 W/m 10,8 C 11,4 C 1,3 km/h (1 Bft)
09/04/2008 21:00 11,3 C 96 % 999,1 hPa 0,0 l/m 0,0 km/h (0 Bft) NE 0,00 h 0,000 mm 0 W/m 10,7 C 11,3 C 0,2 km/h (0 Bft)
09/04/2008 22:00 11,1 C 96 % 999,1 hPa 0,0 l/m 3,0 km/h (1 Bft) NE 0,00 h 0,000 mm 0 W/m 10,5 C 11,1 C 4,7 km/h (1 Bft)
09/04/2008 23:00 10,5 C 96 % 999,3 hPa 0,0 l/m 3,1 km/h (1 Bft) E-NE 0,00 h 0,000 mm 0 W/m 9,8 C 10,5 C 4,9 km/h (1 Bft)
10/04/2008 00:00 10,7 C 96 % 999,3 hPa 0,0 l/m 4,1 km/h (1 Bft) NE 0,00 h 0,000 mm 0 W/m 10,1 C 10,7 C 6,1 km/h (2 Bft)
10/04/2008 01:00 11,1 C 96 % 999,6 hPa 0,0 l/m 0,6 km/h (0 Bft) NE 0,00 h 0,000 mm 0 W/m 10,5 C 11,1 C 1,5 km/h (1 Bft)
10/04/2008 02:00 11,2 C 96 % 999,5 hPa 0,0 l/m 1,0 km/h (0 Bft) N 0,00 h 0,000 mm 0 W/m 10,6 C 11,2 C 2,4 km/h (1 Bft)
10/04/2008 03:00 10,6 C 96 % 999,2 hPa 0,0 l/m 1,5 km/h (1 Bft) NE 0,00 h 0,000 mm 0 W/m 10,0 C 10,6 C 3,2 km/h (1 Bft)
10/04/2008 04:00 10,7 C 96 % 999,1 hPa 0,0 l/m 0,7 km/h (0 Bft) NE 0,00 h 0,000 mm 0 W/m 10,1 C 10,7 C 1,4 km/h (1 Bft)
10/04/2008 05:00 10,7 C 96 % 999,0 hPa 0,4 l/m 1,0 km/h (0 Bft) N-NE 0,00 h 0,000 mm 0 W/m 10,1 C 10,7 C 1,7 km/h (1 Bft)
10/04/2008 06:00 10,4 C 97 % 998,8 hPa 0,2 l/m 4,3 km/h (1 Bft) NE 0,00 h 0,000 mm 0 W/m 9,9 C 10,4 C 6,4 km/h (2 Bft)
10/04/2008 07:00 10,2 C 97 % 998,8 hPa 0,0 l/m 3,6 km/h (1 Bft) N-NE 0,00 h 0,000 mm 13 W/m 9,8 C 10,2 C 5,5 km/h (1 Bft)
10/04/2008 08:00 10,4 C 97 % 999,2 hPa 0,0 l/m 2,7 km/h (1 Bft) N 0,00 h 0,000 mm 25 W/m 10,0 C 10,4 C 4,5 km/h (1 Bft)
10/04/2008 09:00 11,1 C 97 % 999,2 hPa 0,0 l/m 3,8 km/h (1 Bft) NE 0,00 h 0,025 mm 62 W/m 10,6 C 11,1 C 6,3 km/h (2 Bft)
10/04/2008 10:00 11,6 C 97 % 999,5 hPa 0,0 l/m 3,1 km/h (1 Bft) N-NE 0,00 h 0,025 mm 82 W/m 11,2 C 11,6 C 5,1 km/h (1 Bft)
10/04/2008 11:00 11,9 C 97 % 999,6 hPa 0,0 l/m 4,5 km/h (1 Bft) E-NE 0,00 h 0,051 mm 97 W/m 11,4 C 11,9 C 6,7 km/h (2 Bft)
10/04/2008 12:00 11,6 C 97 % 1000,1 hPa 0,2 l/m 3,1 km/h (1 Bft) E 0,00 h 0,051 mm 52 W/m 11,1 C 11,6 C 5,5 km/h (1 Bft)
10/04/2008 13:00 11,7 C 97 % 999,9 hPa 0,2 l/m 4,6 km/h (1 Bft) E-NE 0,00 h 0,025 mm 45 W/m 11,3 C 11,7 C 7,1 km/h (2 Bft)
10/04/2008 14:00 11,6 C 97 % 1000,0 hPa 0,4 l/m 2,3 km/h (1 Bft) E 0,00 h 0,025 mm 63 W/m 11,2 C 11,6 C 3,7 km/h (1 Bft)
10/04/2008 15:00 12,0 C 97 % 1000,0 hPa 0,0 l/m 1,3 km/h (1 Bft) S-SE 0,00 h 0,025 mm 102 W/m 11,6 C 12,0 C 2,3 km/h (1 Bft)
10/04/2008 16:00 12,7 C 98 % 999,5 hPa 0,0 l/m 1,1 km/h (1 Bft) SE 0,08 h 0,051 mm 198 W/m 12,4 C 12,7 C 2,3 km/h (1 Bft)
10/04/2008 17:00 14,0 C 97 % 998,7 hPa 0,0 l/m 3,1 km/h (1 Bft) N-NE 0,35 h 0,102 mm 251 W/m 13,5 C 14,0 C 5,1 km/h (1 Bft)
10/04/2008 18:00 12,6 C 95 % 998,7 hPa 0,2 l/m 6,1 km/h (2 Bft) E 0,00 h 0,127 mm 31 W/m 11,9 C 12,6 C 10,1 km/h (2 Bft)
10/04/2008 19:00 11,9 C 96 % 999,0 hPa 0,0 l/m 7,6 km/h (2 Bft) E-NE 0,00 h 0,025 mm 10 W/m 11,3 C 11,9 C 10,3 km/h (2 Bft)
10/04/2008 20:00 11,7 C 96 % 999,6 hPa 0,0 l/m 3,7 km/h (1 Bft) NE 0,00 h 0,025 mm 0 W/m 11,1 C 11,7 C 5,7 km/h (1 Bft)
10/04/2008 21:00 11,6 C 97 % 999,8 hPa 0,0 l/m 1,0 km/h (0 Bft) N 0,00 h 0,000 mm 0 W/m 11,1 C 11,6 C 3,1 km/h (1 Bft)
10/04/2008 22:00 11,5 C 97 % 999,6 hPa 0,0 l/m 1,6 km/h (1 Bft) N-NO 0,00 h 0,000 mm 0 W/m 11,1 C 11,5 C 2,9 km/h (1 Bft)
10/04/2008 23:00 11,3 C 97 % 999,5 hPa 0,4 l/m 2,0 km/h (1 Bft) N 0,00 h 0,000 mm 0 W/m 10,9 C 11,3 C 3,5 km/h (1 Bft)
11/04/2008 00:00 11,6 C 97 % 999,6 hPa 0,4 l/m 1,3 km/h (1 Bft) N-NE 0,00 h 0,000 mm 0 W/m 11,1 C 11,6 C 2,9 km/h (1 Bft)
11/04/2008 01:00 11,3 C 97 % 998,7 hPa 0,0 l/m 2,1 km/h (1 Bft) N-NE 0,00 h 0,000 mm 0 W/m 10,8 C 11,3 C 4,1 km/h (1 Bft)
11/04/2008 02:00 11,5 C 97 % 998,4 hPa 0,6 l/m 3,4 km/h (1 Bft) N-NE 0,00 h 0,000 mm 0 W/m 11,0 C 11,5 C 6,0 km/h (2 Bft)
11/04/2008 03:00 11,8 C 97 % 998,3 hPa 0,0 l/m 2,7 km/h (1 Bft) N-NE 0,00 h 0,000 mm 0 W/m 11,3 C 11,8 C 4,2 km/h (1 Bft)
11/04/2008 04:00 11,8 C 97 % 998,1 hPa 0,2 l/m 1,0 km/h (0 Bft) N-NE 0,00 h 0,000 mm 0 W/m 11,3 C 11,8 C 2,2 km/h (1 Bft)
11/04/2008 05:00 11,8 C 97 % 997,7 hPa 0,4 l/m 0,5 km/h (0 Bft) N-NE 0,00 h 0,000 mm 0 W/m 11,4 C 11,8 C 0,9 km/h (0 Bft)
11/04/2008 06:00 11,8 C 97 % 996,9 hPa 0,8 l/m 1,2 km/h (1 Bft) N-NE 0,00 h 0,000 mm 0 W/m 11,4 C 11,8 C 2,4 km/h (1 Bft)
11/04/2008 07:00 12,2 C 98 % 996,8 hPa 0,4 l/m 4,2 km/h (1 Bft) E-NE 0,00 h 0,000 mm 0 W/m 11,9 C 12,2 C 6,8 km/h (2 Bft)
11/04/2008 08:00 12,4 C 98 % 996,8 hPa 1,8 l/m 7,9 km/h (2 Bft) NE 0,00 h 0,000 mm 10 W/m 12,0 C 12,4 C 11,3 km/h (2 Bft)
11/04/2008 09:00 11,5 C 98 % 997,0 hPa 0,4 l/m 5,3 km/h (1 Bft) N-NE 0,00 h 0,025 mm 25 W/m 11,2 C 11,5 C 8,2 km/h (2 Bft)
11/04/2008 10:00 11,8 C 99 % 997,3 hPa 0,0 l/m 2,8 km/h (1 Bft) N-NE 0,00 h 0,025 mm 67 W/m 11,7 C 11,8 C 5,3 km/h (1 Bft)
11/04/2008 11:00 13,0 C 100 % 997,8 hPa 0,0 l/m 2,8 km/h (1 Bft) N 0,00 h 0,025 mm 131 W/m 13,0 C 13,0 C 4,8 km/h (1 Bft)
11/04/2008 12:00 13,5 C 100 % 998,2 hPa 0,0 l/m 2,5 km/h (1 Bft) E-NE 0,00 h 0,076 mm 112 W/m 13,5 C 13,5 C 4,3 km/h (1 Bft)
11/04/2008 13:00 13,4 C 100 % 998,2 hPa 0,2 l/m 3,0 km/h (1 Bft) E 0,00 h 0,051 mm 162 W/m 13,4 C 13,4 C 5,0 km/h (1 Bft)
11/04/2008 14:00 14,0 C 100 % 998,2 hPa 0,0 l/m 1,7 km/h (1 Bft) E 0,00 h 0,076 mm 165 W/m 14,0 C 14,0 C 3,3 km/h (1 Bft)
11/04/2008 15:00 13,7 C 100 % 998,4 hPa 0,0 l/m 7,0 km/h (2 Bft) SE 0,00 h 0,076 mm 148 W/m 13,7 C 13,7 C 10,8 km/h (2 Bft)
11/04/2008 16:00 13,3 C 99 % 998,7 hPa 1,0 l/m 10,4 km/h (2 Bft) S-SO 0,27 h 0,076 mm 270 W/m 13,2 C 13,3 C 14,4 km/h (3 Bft)
11/04/2008 17:00 16,0 C 86 % 998,7 hPa 0,0 l/m 5,0 km/h (1 Bft) E 0,88 h 0,152 mm 422 W/m 13,5 C 16,0 C 7,9 km/h (2 Bft)
11/04/2008 18:00 14,9 C 79 % 999,2 hPa 0,0 l/m 9,7 km/h (2 Bft) S-SO 0,63 h 0,229 mm 206 W/m 11,3 C 14,9 C 13,0 km/h (3 Bft)
11/04/2008 19:00 14,0 C 80 % 999,4 hPa 0,0 l/m 2,4 km/h (1 Bft) O 0,17 h 0,127 mm 50 W/m 10,6 C 14,0 C 4,0 km/h (1 Bft)
11/04/2008 20:00 12,6 C 84 % 999,6 hPa 0,0 l/m 7,4 km/h (2 Bft) SO 0,02 h 0,025 mm 6 W/m 10,0 C 12,6 C 9,9 km/h (2 Bft)
11/04/2008 21:00 11,8 C 88 % 1000,5 hPa 0,0 l/m 1,1 km/h (1 Bft) O-SO 0,00 h 0,025 mm 0 W/m 9,8 C 11,8 C 2,4 km/h (1 Bft)
11/04/2008 22:00 10,7 C 89 % 1001,0 hPa 0,0 l/m 5,9 km/h (2 Bft) SO 0,00 h 0,025 mm 0 W/m 8,9 C 10,7 C 8,2 km/h (2 Bft)
11/04/2008 23:00 10,2 C 90 % 1001,3 hPa 0,0 l/m 1,4 km/h (1 Bft) E-NE 0,00 h 0,025 mm 0 W/m 8,6 C 10,2 C 2,5 km/h (1 Bft)
12/04/2008 00:00 9,3 C 91 % 1001,2 hPa 0,0 l/m 3,9 km/h (1 Bft) NO 0,00 h 0,025 mm 0 W/m 7,8 C 9,0 C 6,1 km/h (2 Bft)
12/04/2008 01:00 9,0 C 92 % 1000,7 hPa 0,0 l/m 3,5 km/h (1 Bft) NE 0,00 h 0,025 mm 0 W/m 7,7 C 8,8 C 5,3 km/h (1 Bft)
12/04/2008 02:00 8,8 C 93 % 1000,6 hPa 0,0 l/m 4,6 km/h (1 Bft) NE 0,00 h 0,025 mm 0 W/m 7,7 C 8,4 C 6,8 km/h (2 Bft)
12/04/2008 03:00 8,0 C 93 % 1000,6 hPa 0,0 l/m 2,2 km/h (1 Bft) N-NO 0,00 h 0,025 mm 0 W/m 7,0 C 8,0 C 4,4 km/h (1 Bft)
12/04/2008 04:00 8,2 C 94 % 1000,5 hPa 0,0 l/m 2,9 km/h (1 Bft) N 0,00 h 0,000 mm 0 W/m 7,2 C 8,1 C 5,5 km/h (1 Bft)
12/04/2008 05:00 8,0 C 94 % 1000,5 hPa 0,0 l/m 3,8 km/h (1 Bft) N 0,00 h 0,000 mm 0 W/m 7,1 C 7,8 C 6,2 km/h (2 Bft)
12/04/2008 06:00 8,1 C 94 % 1000,7 hPa 0,0 l/m 3,6 km/h (1 Bft) NE 0,00 h 0,000 mm 8 W/m 7,2 C 7,8 C 5,4 km/h (1 Bft)
12/04/2008 07:00 8,3 C 95 % 1001,5 hPa 0,0 l/m 1,8 km/h (1 Bft) NE 0,07 h 0,000 mm 20 W/m 7,5 C 8,2 C 3,3 km/h (1 Bft)
12/04/2008 08:00 8,5 C 95 % 1002,4 hPa 0,0 l/m 1,7 km/h (1 Bft) N-NO 0,00 h 0,000 mm 59 W/m 7,8 C 8,5 C 3,5 km/h (1 Bft)
12/04/2008 09:00 9,6 C 94 % 1003,0 hPa 0,0 l/m 1,3 km/h (1 Bft) E 0,00 h 0,025 mm 125 W/m 8,6 C 9,6 C 2,8 km/h (1 Bft)
12/04/2008 10:00 10,8 C 83 % 1003,6 hPa 0,0 l/m 2,1 km/h (1 Bft) E 0,30 h 0,051 mm 276 W/m 8,1 C 10,8 C 3,9 km/h (1 Bft)
12/04/2008 11:00 11,6 C 77 % 1004,1 hPa 0,0 l/m 5,7 km/h (1 Bft) E 0,00 h 0,127 mm 256 W/m 7,8 C 11,6 C 8,8 km/h (2 Bft)
12/04/2008 12:00 12,8 C 74 % 1004,8 hPa 0,2 l/m 6,8 km/h (2 Bft) E 0,48 h 0,152 mm 489 W/m 8,3 C 12,8 C 10,0 km/h (2 Bft)
12/04/2008 13:00 12,8 C 73 % 1005,2 hPa 0,0 l/m 8,6 km/h (2 Bft) E 0,03 h 0,279 mm 264 W/m 8,0 C 12,8 C 12,9 km/h (3 Bft)
12/04/2008 14:00 12,4 C 74 % 1006,0 hPa 0,0 l/m 7,2 km/h (2 Bft) E-NE 0,00 h 0,178 mm 241 W/m 7,9 C 12,4 C 10,0 km/h (2 Bft)
12/04/2008 15:00 14,0 C 68 % 1006,5 hPa 0,0 l/m 9,0 km/h (2 Bft) E-NE 0,85 h 0,152 mm 618 W/m 8,2 C 14,0 C 13,5 km/h (3 Bft)
12/04/2008 16:00 14,3 C 66 % 1006,9 hPa 0,0 l/m 7,3 km/h (2 Bft) E 0,98 h 0,356 mm 650 W/m 7,9 C 14,3 C 12,9 km/h (3 Bft)
12/04/2008 17:00 13,3 C 69 % 1007,2 hPa 0,0 l/m 5,1 km/h (1 Bft) E 0,58 h 0,356 mm 318 W/m 7,7 C 13,3 C 8,7 km/h (2 Bft)
12/04/2008 18:00 12,9 C 73 % 1007,7 hPa 0,0 l/m 3,3 km/h (1 Bft) E-SE 0,75 h 0,178 mm 209 W/m 8,2 C 12,9 C 6,5 km/h (2 Bft)
12/04/2008 19:00 11,4 C 78 % 1008,2 hPa 0,0 l/m 1,0 km/h (0 Bft) E-SE 0,20 h 0,127 mm 58 W/m 7,6 C 11,4 C 2,3 km/h (1 Bft)
12/04/2008 20:00 10,1 C 82 % 1008,8 hPa 0,0 l/m 1,2 km/h (1 Bft) E-SE 0,05 h 0,025 mm 9 W/m 7,1 C 10,1 C 1,5 km/h (1 Bft)
12/04/2008 21:00 9,4 C 86 % 1009,6 hPa 0,0 l/m 6,0 km/h (2 Bft) O 0,00 h 0,000 mm 0 W/m 7,1 C 8,8 C 7,9 km/h (2 Bft)
12/04/2008 22:00 8,9 C 87 % 1010,2 hPa 0,0 l/m 4,3 km/h (1 Bft) O-NO 0,00 h 0,025 mm 0 W/m 6,9 C 8,6 C 6,4 km/h (2 Bft)
12/04/2008 23:00 8,2 C 87 % 1010,5 hPa 0,0 l/m 4,6 km/h (1 Bft) O 0,00 h 0,025 mm 0 W/m 6,2 C 7,7 C 7,0 km/h (2 Bft)
13/04/2008 00:00 8,0 C 87 % 1010,7 hPa 0,0 l/m 4,1 km/h (1 Bft) O-NO 0,00 h 0,025 mm 0 W/m 5,9 C 7,6 C 6,8 km/h (2 Bft)
13/04/2008 01:00 7,8 C 83 % 1010,9 hPa 0,0 l/m 3,2 km/h (1 Bft) O-NO 0,00 h 0,025 mm 0 W/m 5,2 C 7,7 C 5,2 km/h (1 Bft)
13/04/2008 02:00 7,7 C 82 % 1010,9 hPa 0,0 l/m 3,6 km/h (1 Bft) O 0,00 h 0,025 mm 0 W/m 4,8 C 7,5 C 4,7 km/h (1 Bft)
13/04/2008 03:00 7,8 C 79 % 1011,1 hPa 0,0 l/m 4,9 km/h (1 Bft) O 0,00 h 0,025 mm 0 W/m 4,4 C 7,2 C 6,5 km/h (2 Bft)
13/04/2008 04:00 7,2 C 78 % 1011,6 hPa 0,0 l/m 2,9 km/h (1 Bft) O 0,00 h 0,025 mm 0 W/m 3,6 C 7,0 C 4,0 km/h (1 Bft)
13/04/2008 05:00 7,8 C 76 % 1011,9 hPa 0,0 l/m 5,3 km/h (1 Bft) O 0,00 h 0,025 mm 0 W/m 3,8 C 7,2 C 6,6 km/h (2 Bft)
13/04/2008 06:00 7,4 C 76 % 1012,4 hPa 0,0 l/m 4,0 km/h (1 Bft) O-NO 0,00 h 0,025 mm 7 W/m 3,4 C 7,0 C 6,1 km/h (2 Bft)
13/04/2008 07:00 7,2 C 77 % 1013,0 hPa 0,0 l/m 2,6 km/h (1 Bft) O-NO 0,05 h 0,025 mm 29 W/m 3,4 C 6,9 C 4,6 km/h (1 Bft)
13/04/2008 08:00 9,2 C 73 % 1013,6 hPa 0,0 l/m 1,7 km/h (1 Bft) O-NO 0,43 h 0,025 mm 156 W/m 4,6 C 9,1 C 3,3 km/h (1 Bft)
13/04/2008 09:00 12,2 C 67 % 1014,4 hPa 0,0 l/m 2,7 km/h (1 Bft) S 1,00 h 0,076 mm 405 W/m 6,2 C 12,2 C 4,8 km/h (1 Bft)
13/04/2008 10:00 13,9 C 63 % 1014,9 hPa 0,0 l/m 6,5 km/h (2 Bft) E 1,00 h 0,203 mm 574 W/m 7,0 C 13,9 C 9,9 km/h (2 Bft)
13/04/2008 11:00 14,6 C 64 % 1015,2 hPa 0,0 l/m 6,9 km/h (2 Bft) S 1,00 h 0,305 mm 717 W/m 7,9 C 14,6 C 11,5 km/h (2 Bft)
13/04/2008 12:00 15,7 C 63 % 1015,5 hPa 0,0 l/m 9,7 km/h (2 Bft) E 0,93 h 0,406 mm 770 W/m 8,6 C 15,7 C 15,1 km/h (3 Bft)
13/04/2008 13:00 16,0 C 66 % 1015,3 hPa 0,0 l/m 11,0 km/h (2 Bft) E 1,00 h 0,457 mm 835 W/m 9,6 C 16,0 C 16,6 km/h (3 Bft)
13/04/2008 14:00 15,6 C 69 % 1015,3 hPa 0,0 l/m 11,2 km/h (2 Bft) E 1,00 h 0,483 mm 799 W/m 9,8 C 15,6 C 16,3 km/h (3 Bft)
13/04/2008 15:00 15,1 C 70 % 1015,2 hPa 0,0 l/m 9,7 km/h (2 Bft) E 0,45 h 0,457 mm 465 W/m 9,7 C 15,1 C 14,6 km/h (3 Bft)
13/04/2008 16:00 15,5 C 60 % 1014,8 hPa 0,0 l/m 7,0 km/h (2 Bft) E 1,00 h 0,279 mm 587 W/m 7,6 C 15,5 C 11,1 km/h (2 Bft)
13/04/2008 17:00 15,5 C 61 % 1014,5 hPa 0,0 l/m 7,5 km/h (2 Bft) E 1,00 h 0,356 mm 424 W/m 7,9 C 15,5 C 11,2 km/h (2 Bft)
13/04/2008 18:00 14,2 C 65 % 1014,7 hPa 0,0 l/m 5,3 km/h (1 Bft) E 1,00 h 0,254 mm 243 W/m 7,7 C 14,2 C 9,9 km/h (2 Bft)
13/04/2008 19:00 12,7 C 73 % 1014,9 hPa 0,0 l/m 9,1 km/h (2 Bft) E-NE 0,37 h 0,152 mm 63 W/m 8,0 C 12,7 C 12,9 km/h (3 Bft)
13/04/2008 20:00 10,6 C 80 % 1015,1 hPa 0,0 l/m 3,8 km/h (1 Bft) N-NE 0,03 h 0,076 mm 8 W/m 7,3 C 10,6 C 6,1 km/h (2 Bft)
13/04/2008 21:00 9,2 C 82 % 1015,7 hPa 0,0 l/m 1,8 km/h (1 Bft) N-NE 0,00 h 0,025 mm 0 W/m 6,4 C 9,2 C 3,3 km/h (1 Bft)
13/04/2008 22:00 9,2 C 85 % 1016,1 hPa 0,0 l/m 5,8 km/h (1 Bft) O 0,00 h 0,025 mm 0 W/m 6,7 C 8,6 C 7,5 km/h (2 Bft)
13/04/2008 23:00 9,3 C 82 % 1016,1 hPa 0,0 l/m 6,6 km/h (2 Bft) O 0,00 h 0,025 mm 0 W/m 6,3 C 8,5 C 8,8 km/h (2 Bft)
Min-Date _ 07/04/08 07/04/08 11/04/08 - 07/04/08 - - - - 07/04/08 07/04/08 07/04/08
_ Min-Heure 06:24 13:34 08:15 - 23:09 - - - - 13:34 06:34 23:25
Minimum _ 6,6 C 9 % 996,5 hPa - 0,0 km/h (0 Bft) - - - - -13,5 C 3,6 C 0,0 km/h (0 Bft)
Max-Date _ 07/04/08 10/04/08 13/04/08 09/04/08 07/04/08 - 07/04/08 07/04/08 12/04/08 11/04/08 07/04/08 07/04/08
_ Max-Heure 16:15 03:26 22:00 16:28 16:39 - 07:12 15:00 15:20 14:49 16:15 15:43
Maximum _ 21,4 C 100 % 1016,1 hPa 3,2 l/m 40,2 km/h
SO (6 Bft)
- 0,02 h 0,838 mm 1062 W/m 14,5 C 21,4 C 53,1 km/h
SO (7 Bft)
Moyenne _ 11,5 C 77 % 1002,6 hPa #16,2 l/m 6,2 km/h (2 Bft) E #26:35 h #17,098 mm 205 W/m 6,6 C 11,3 C 9,0 km/h (2 Bft)
Roquefort les pins